Terminal Aerodrome Forecast
Issued by NWS

Home | Current Version | Previous Version | Text Only | Print | Product List | Glossary On
Versions: 1 2 3 4 5 6 7 8 9 10 11 12 13 14 15 16 17 18 19 20 21 22 23 24 25 26 27 28 29 30 31 32 33 34 35 36
000
FTUS41 KRNK 250109 AAB
TAFLWB
TAF AMD
KLWB 250109Z 2501/2524 27010G14KT P6SM SCT016 OVC026
      TEMPO 2501/2504 SCT017 BKN035
     FM250400 31006KT P6SM SCT040
     FM251100 VRB03KT P6SM SCT060 WS020/28035KT
     FM251600 26006KT P6SM SCT250
     FM251800 24007KT P6SM SCT050=

USA.gov is the U.S. government's official web portal to all federal, state and local government web resources and services.